Time;durP1;ratioP1;P1;durP2;ratioP2;P2;SDS_P1;SDS_P2;PMS_P1;PMS_P2;Temp;Humidity;BMP_temperature;BMP_pressure;BME280_temperature;BME280_humidity;BME280_pressure;Samples;Min_cycle;Max_cycle;Signal;HPM_P1;HPM_P2
2022/10/29 00:01:00;;;;;;;24.50;5.32;;;;;;;;;;5119860;27;20498;-82
2022/10/29 00:03:46;;;;;;;20.70;6.22;;;;;;;;;;5134976;27;20091;-81
2022/10/29 00:06:31;;;;;;;29.58;7.00;;;;;;;;;;5119302;27;20045;-82
2022/10/29 00:09:15;;;;;;;26.02;5.57;;;;;;;;;;5134180;27;20042;-81
2022/10/29 00:12:00;;;;;;;28.40;7.47;;;;;;;;;;5134185;27;20046;-81
2022/10/29 00:14:44;;;;;;;33.53;6.10;;;;;;;;;;5134708;27;20073;-81
2022/10/29 00:17:29;;;;;;;27.38;6.30;;;;;;;;;;5134666;27;20491;-81
2022/10/29 00:20:13;;;;;;;29.58;7.50;;;;;;;;;;5133979;27;20042;-82
2022/10/29 00:22:58;;;;;;;25.17;6.60;;;;;;;;;;5134017;27;20057;-81
2022/10/29 00:25:42;;;;;;;29.23;5.75;;;;;;;;;;5134638;27;20151;-81
2022/10/29 00:28:27;;;;;;;24.02;5.75;;;12.90;99.90;;;;;;5134684;27;20046;-81
2022/10/29 00:31:17;;;;;;;27.10;5.85;;;12.90;99.90;;;;;;5118159;27;20038;-81
2022/10/29 00:34:01;;;;;;;26.25;6.03;;;13.00;99.90;;;;;;5133784;27;20394;-82
2022/10/29 00:36:46;;;;;;;28.10;5.93;;;;;;;;;;5134099;27;20043;-82
2022/10/29 00:39:32;;;;;;;32.20;7.38;;;;;;;;;;5134253;27;20076;-82
2022/10/29 00:42:17;;;;;;;30.83;6.20;;;;;;;;;;5124637;27;20847;-82
2022/10/29 00:45:01;;;;;;;25.55;6.43;;;;;;;;;;5113043;27;20118;-82
2022/10/29 00:47:49;;;;;;;22.58;6.50;;;12.80;99.90;;;;;;5117186;27;20046;-82
2022/10/29 00:50:34;;;;;;;20.63;5.10;;;12.80;99.90;;;;;;5120780;27;20042;-82
2022/10/29 00:53:23;;;;;;;26.98;5.90;;;12.70;99.90;;;;;;5122107;27;20673;-81
2022/10/29 00:56:08;;;;;;;18.77;6.68;;;;;;;;;;5133281;27;20038;-81
2022/10/29 00:58:52;;;;;;;32.58;5.78;;;;;;;;;;5132952;27;20042;-81
2022/10/29 01:01:38;;;;;;;22.95;6.15;;;12.60;99.90;;;;;;5133771;27;20088;-82
2022/10/29 01:04:24;;;;;;;33.38;5.88;;;12.60;99.90;;;;;;5133093;27;20078;-81
2022/10/29 01:07:08;;;;;;;22.67;5.20;;;;;;;;;;5117768;27;20104;-82
2022/10/29 01:09:53;;;;;;;20.00;5.35;;;;;;;;;;5118010;27;20493;-81
2022/10/29 01:12:43;;;;;;;25.88;5.13;;;12.50;99.90;;;;;;5118315;27;20506;-81
2022/10/29 01:15:28;;;;;;;24.00;5.35;;;;;;;;;;5122310;27;20042;-81
2022/10/29 01:18:12;;;;;;;22.77;6.72;;;;;;;;;;5102815;27;20185;-81
2022/10/29 01:21:14;;;;;;;19.83;5.38;;;12.30;99.90;;;;;;5133471;27;20095;-81
2022/10/29 01:24:20;;;;;;;33.40;5.97;;;12.10;99.90;;;;;;5133448;27;20046;-81
2022/10/29 01:27:26;;;;;;;23.40;5.40;;;12.30;99.90;;;;;;5117492;27;20041;-81
2022/10/29 01:30:35;;;;;;;17.77;5.03;;;12.00;99.90;;;;;;5132820;27;20065;-81
2022/10/29 01:33:27;;;;;;;17.33;5.22;;;12.20;99.90;;;;;;5132727;27;20038;-81
2022/10/29 01:36:36;;;;;;;39.17;6.90;;;12.00;99.90;;;;;;5132859;27;20038;-81
2022/10/29 01:39:28;;;;;;;24.50;6.40;;;12.10;99.90;;;;;;5132863;27;20397;-81
2022/10/29 01:42:38;;;;;;;27.50;6.20;;;11.90;99.90;;;;;;5116997;27;20096;-81
2022/10/29 01:45:28;;;;;;;29.17;5.38;;;12.00;99.90;;;;;;5132564;27;21425;-81
2022/10/29 01:48:18;;;;;;;22.67;5.68;;;11.90;99.90;;;;;;5117121;28;20030;-81
2022/10/29 01:51:10;;;;;;;22.35;5.30;;;11.90;99.90;;;;;;5113522;27;20074;-82
2022/10/29 01:53:56;;;;;;;31.02;6.55;;;11.90;99.90;;;;;;5128951;27;20436;-81
2022/10/29 01:56:40;;;;;;;28.15;6.78;;;;;;;;;;5133140;27;20038;-81
2022/10/29 01:59:29;;;;;;;22.83;6.45;;;11.90;99.90;;;;;;5132413;27;20076;-81
2022/10/29 02:02:47;;;;;;;17.75;5.30;;;11.90;99.90;;;;;;5132385;27;20535;-81
2022/10/29 02:05:57;;;;;;;21.98;6.22;;;11.80;99.90;;;;;;5132706;27;20103;-81
2022/10/29 02:09:01;;;;;;;25.63;5.70;;;11.90;99.90;;;;;;5124779;27;20169;-82
2022/10/29 02:11:59;;;;;;;26.27;5.22;;;11.70;99.90;;;;;;5125886;27;20390;-81
2022/10/29 02:14:50;;;;;;;27.58;5.88;;;11.60;99.90;;;;;;5122797;27;20034;-81
2022/10/29 02:17:35;;;;;;;24.88;5.32;;;;;;;;;;5136666;27;20083;-81
2022/10/29 02:20:20;;;;;;;17.70;5.82;;;;;;;;;;5136430;27;20115;-82
2022/10/29 02:23:04;;;;;;;26.52;6.88;;;;;;;;;;5136563;27;20146;-81
2022/10/29 02:25:49;;;;;;;25.65;6.70;;;;;;;;;;5121247;27;20548;-81
2022/10/29 02:28:33;;;;;;;22.23;6.53;;;;;;;;;;5136262;27;20088;-81
2022/10/29 02:31:18;;;;;;;24.73;6.57;;;;;;;;;;5136183;27;20123;-81
2022/10/29 02:34:02;;;;;;;22.67;6.10;;;;;;;;;;5136653;27;20042;-81
2022/10/29 02:36:47;;;;;;;42.97;7.30;;;;;;;;;;5136524;27;20031;-81
2022/10/29 02:39:31;;;;;;;60.40;9.52;;;;;;;;;;5120626;27;20046;-82
2022/10/29 02:42:16;;;;;;;34.60;7.80;;;;;;;;;;5136027;27;20481;-82
2022/10/29 02:45:01;;;;;;;56.92;9.23;;;;;;;;;;5136375;27;20072;-81
2022/10/29 02:47:46;;;;;;;32.15;7.63;;;;;;;;;;5136424;27;20080;-81
2022/10/29 02:50:30;;;;;;;41.92;10.15;;;;;;;;;;5133692;27;20054;-81
2022/10/29 02:53:14;;;;;;;35.97;8.65;;;;;;;;;;5126333;27;20038;-81
2022/10/29 02:55:59;;;;;;;43.72;10.57;;;;;;;;;;5136104;27;20043;-81
2022/10/29 02:58:44;;;;;;;22.75;7.95;;;;;;;;;;5136226;27;20042;-81
2022/10/29 03:01:28;;;;;;;39.08;8.95;;;;;;;;;;5135637;27;20074;-81
2022/10/29 03:04:13;;;;;;;53.83;10.50;;;;;;;;;;5120437;27;20038;-81
2022/10/29 03:06:58;;;;;;;41.38;11.02;;;11.40;99.90;;;;;;5136142;27;20493;-81
2022/10/29 03:09:43;;;;;;;28.88;7.78;;;;;;;;;;5121869;27;20092;-81
2022/10/29 03:12:27;;;;;;;40.00;9.63;;;;;;;;;;5119665;27;20088;-81
2022/10/29 03:15:12;;;;;;;99.20;13.05;;;;;;;;;;5120403;27;20046;-81
2022/10/29 03:17:56;;;;;;;100.15;14.43;;;;;;;;;;5135659;27;20097;-81
2022/10/29 03:20:41;;;;;;;68.40;12.43;;;11.50;99.90;;;;;;5134311;27;20043;-81
2022/10/29 03:23:26;;;;;;;39.55;11.15;;;;;;;;;;5119705;27;20082;-81
2022/10/29 03:26:11;;;;;;;48.28;12.65;;;;;;;;;;5135539;27;20053;-81
2022/10/29 03:28:55;;;;;;;63.90;14.30;;;;;;;;;;5120308;27;20038;-81
2022/10/29 03:31:40;;;;;;;38.10;12.63;;;;;;;;;;5134891;27;20139;-81
2022/10/29 03:34:24;;;;;;;73.00;16.05;;;;;;;;;;5135120;27;20527;-81
2022/10/29 03:37:09;;;;;;;40.78;13.68;;;;;;;;;;5135569;27;20084;-81
2022/10/29 03:39:54;;;;;;;43.28;14.18;;;;;;;;;;5135334;27;20066;-81
2022/10/29 03:42:38;;;;;;;37.78;12.93;;;;;;;;;;5134839;27;20107;-81
2022/10/29 03:45:23;;;;;;;36.13;12.93;;;;;;;;;;5134649;27;20489;-82
2022/10/29 03:48:08;;;;;;;40.05;14.02;;;11.90;99.90;;;;;;5119554;27;20034;-81
2022/10/29 03:50:56;;;;;;;32.35;13.38;;;12.10;99.90;;;;;;5130110;27;20043;-81
2022/10/29 03:53:40;;;;;;;38.22;15.32;;;;;;;;;;5113058;27;20065;-81
2022/10/29 03:56:25;;;;;;;40.63;15.63;;;;;;;;;;5119104;27;20058;-82
2022/10/29 03:59:09;;;;;;;35.25;14.60;;;;;;;;;;5134850;27;20096;-81
2022/10/29 04:01:54;;;;;;;45.50;16.27;;;;;;;;;;5135141;27;20049;-81
2022/10/29 04:04:38;;;;;;;49.33;17.67;;;12.00;99.90;;;;;;5134432;27;20057;-81
2022/10/29 04:07:22;;;;;;;66.47;18.48;;;;;;;;;;5134658;27;20046;-81
2022/10/29 04:10:07;;;;;;;57.72;16.30;;;12.20;99.90;;;;;;5134795;27;20060;-81
2022/10/29 04:12:52;;;;;;;74.65;19.08;;;;;;;;;;5134660;27;20034;-81
2022/10/29 04:15:37;;;;;;;103.93;21.23;;;;;;;;;;5134228;27;20087;-81
2022/10/29 04:18:21;;;;;;;115.30;21.08;;;;;;;;;;5134767;27;20034;-81
2022/10/29 04:21:06;;;;;;;113.78;21.67;;;12.40;99.90;;;;;;5134368;27;20103;-81
2022/10/29 04:23:50;;;;;;;82.82;17.33;;;12.50;99.90;;;;;;5134604;27;20468;-81
2022/10/29 04:26:35;;;;;;;78.47;17.33;;;;;;;;;;5133850;27;20035;-81
2022/10/29 04:29:19;;;;;;;161.15;23.42;;;;;;;;;;5134538;27;20041;-81
2022/10/29 04:32:04;;;;;;;149.10;25.15;;;12.30;99.90;;;;;;5134215;27;20045;-81
2022/10/29 04:34:48;;;;;;;145.35;25.83;;;;;;;;;;5133647;27;20069;-81
2022/10/29 04:37:33;;;;;;;192.73;28.45;;;;;;;;;;5133842;27;20050;-81
2022/10/29 04:40:17;;;;;;;167.98;28.58;;;;;;;;;;5134061;27;20391;-81
2022/10/29 04:43:01;;;;;;;153.25;28.42;;;12.50;99.90;;;;;;5134023;27;20083;-81
2022/10/29 04:45:51;;;;;;;181.60;27.67;;;12.50;99.90;;;;;;5133577;27;20041;-81
2022/10/29 04:48:36;;;;;;;122.63;23.05;;;;;;;;;;5133443;27;20080;-81
2022/10/29 04:51:24;;;;;;;83.47;19.42;;;12.50;99.90;;;;;;5109495;28;20054;-81
2022/10/29 04:54:09;;;;;;;97.00;22.70;;;12.50;99.90;;;;;;5116889;27;20096;-81
2022/10/29 04:56:53;;;;;;;135.80;25.15;;;;;;;;;;5133519;27;20072;-81
2022/10/29 04:59:38;;;;;;;150.95;27.45;;;;;;;;;;5133471;27;20038;-81
2022/10/29 05:02:22;;;;;;;79.32;20.05;;;;;;;;;;5118183;27;20050;-81
2022/10/29 05:05:07;;;;;;;61.97;17.63;;;12.90;99.90;;;;;;5133948;27;20440;-81
2022/10/29 05:08:02;;;;;;;63.65;19.55;;;12.40;99.90;;;;;;5133081;27;20616;-81
2022/10/29 05:10:47;;;;;;;101.10;21.15;;;;;;;;;;5133064;27;20465;-81
2022/10/29 05:13:33;;;;;;;117.20;23.67;;;12.60;99.90;;;;;;5133562;27;20123;-81
2022/10/29 05:16:18;;;;;;;189.10;30.15;;;;;;;;;;5133522;27;20038;-81
2022/10/29 05:19:03;;;;;;;158.25;25.25;;;;;;;;;;5133589;27;20120;-81
2022/10/29 05:21:48;;;;;;;185.45;29.20;;;;;;;;;;5132947;27;20096;-81
2022/10/29 05:24:33;;;;;;;70.50;19.92;;;;;;;;;;5133232;27;20098;-81
2022/10/29 05:27:17;;;;;;;236.70;30.98;;;;;;;;;;5133492;27;20042;-81
2022/10/29 05:30:02;;;;;;;219.40;29.77;;;;;;;;;;5133251;27;20406;-81
2022/10/29 05:32:46;;;;;;;237.02;33.30;;;12.70;99.90;;;;;;5132809;27;20038;-81
2022/10/29 05:35:30;;;;;;;;;;;12.70;99.90;;;;;;5133774;27;20407;-81
2022/10/29 05:38:15;;;;;;;132.13;24.48;;;;;;;;;;5117675;27;19934;-81
2022/10/29 05:41:00;;;;;;;75.32;20.30;;;12.60;99.90;;;;;;5132856;27;20107;-81
2022/10/29 05:43:49;;;;;;;168.93;26.50;;;12.60;99.90;;;;;;5116723;27;20077;-81
2022/10/29 05:46:33;;;;;;;145.25;24.38;;;13.00;99.90;;;;;;5133135;27;20042;-81
2022/10/29 05:49:17;;;;;;;189.38;30.10;;;;;;;;;;5133267;27;20058;-81
2022/10/29 05:52:02;;;;;;;140.00;24.63;;;;;;;;;;5118276;27;20045;-81
2022/10/29 05:54:46;;;;;;;83.50;20.48;;;;;;;;;;5129967;27;20041;-82
2022/10/29 05:57:31;;;;;;;144.02;25.38;;;;;;;;;;5124672;27;20852;-82
2022/10/29 06:00:16;;;;;;;187.35;30.90;;;12.70;99.90;;;;;;5125416;27;20050;-82
2022/10/29 06:03:00;;;;;;;133.50;24.35;;;;;;;;;;5124646;27;20058;-82
2022/10/29 06:05:49;;;;;;;122.70;25.55;;;12.70;99.90;;;;;;5124330;27;20042;-82
2022/10/29 06:08:33;;;;;;;93.20;24.20;;;12.70;99.90;;;;;;5125323;27;20110;-82
2022/10/29 06:11:17;;;;;;;64.28;20.38;;;12.70;99.90;;;;;;5124926;27;20042;-82
2022/10/29 06:14:01;;;;;;;146.52;28.55;;;12.70;99.90;;;;;;5124840;27;20038;-82
2022/10/29 06:16:45;;;;;;;122.65;25.40;;;12.70;99.90;;;;;;5124614;27;20393;-82
2022/10/29 06:19:29;;;;;;;114.43;25.52;;;12.70;99.90;;;;;;5109631;27;20212;-82
2022/10/29 06:22:13;;;;;;;76.03;22.58;;;;;;;;;;5124764;27;20047;-81
2022/10/29 06:24:58;;;;;;;60.63;21.35;;;;;;;;;;5124497;27;20045;-82
2022/10/29 06:27:42;;;;;;;72.90;21.92;;;12.80;99.90;;;;;;5124588;27;20125;-82
2022/10/29 06:30:27;;;;;;;82.18;22.48;;;;;;;;;;5109430;28;20408;-82
2022/10/29 06:33:11;;;;;;;99.35;25.75;;;12.80;99.90;;;;;;5125003;27;20074;-81
2022/10/29 06:35:59;;;;;;;112.43;24.77;;;13.50;99.90;;;;;;5124399;27;20497;-82
2022/10/29 06:38:44;;;;;;;114.57;24.23;;;12.80;99.90;;;;;;5108875;28;20082;-82
2022/10/29 06:41:28;;;;;;;87.65;23.92;;;;;;;;;;5124702;27;20046;-82
2022/10/29 06:44:13;;;;;;;70.43;21.10;;;;;;;;;;5124728;27;20078;-82
2022/10/29 06:46:57;;;;;;;147.23;29.90;;;12.70;99.90;;;;;;5124325;27;20509;-82
2022/10/29 06:49:42;;;;;;;141.35;29.10;;;;;;;;;;5108731;28;20046;-82
2022/10/29 06:52:26;;;;;;;218.90;34.17;;;;;;;;;;5110236;27;20108;-82
2022/10/29 06:55:11;;;;;;;174.60;31.75;;;;;;;;;;5123135;27;20089;-82
2022/10/29 06:58:00;;;;;;;176.55;31.17;;;13.00;99.90;;;;;;5106761;27;20485;-82
2022/10/29 07:00:45;;;;;;;233.73;36.10;;;;;;;;;;5135382;27;20164;-81
2022/10/29 07:03:30;;;;;;;107.00;25.60;;;;;;;;;;5136137;27;20547;-83
2022/10/29 07:06:14;;;;;;;107.72;26.60;;;;;;;;;;5120477;27;20084;-81
2022/10/29 07:08:59;;;;;;;144.40;31.45;;;;;;;;;;5121245;27;20043;-81
2022/10/29 07:11:43;;;;;;;84.80;25.80;;;13.10;99.90;;;;;;5108549;27;20060;-81
2022/10/29 07:14:27;;;;;;;95.32;26.15;;;;;;;;;;5135954;27;20410;-81
2022/10/29 07:17:12;;;;;;;96.38;27.58;;;;;;;;;;5120007;27;20046;-85
2022/10/29 07:19:56;;;;;;;83.93;25.80;;;;;;;;;;5119413;27;20072;-81
2022/10/29 07:22:46;;;;;;;75.78;23.33;;;12.90;99.90;;;;;;5144244;27;20450;-81
2022/10/29 07:25:31;;;;;;;169.50;34.58;;;13.10;99.90;;;;;;5140206;27;20043;-81
2022/10/29 07:28:19;;;;;;;79.50;25.92;;;13.10;99.90;;;;;;5141222;27;20076;-81
2022/10/29 07:31:04;;;;;;;128.95;31.13;;;;;;;;;;5143471;27;20099;-81
2022/10/29 07:33:48;;;;;;;119.50;31.73;;;;;;;;;;5139383;27;20095;-82
2022/10/29 07:36:33;;;;;;;154.98;33.60;;;;;;;;;;5127176;27;20068;-81
2022/10/29 07:39:17;;;;;;;121.78;30.75;;;;;;;;;;5141500;27;20468;-82
2022/10/29 07:42:01;;;;;;;167.88;37.08;;;13.20;99.90;;;;;;5139158;27;20387;-81
2022/10/29 07:44:46;;;;;;;123.70;33.13;;;;;;;;;;5143757;27;20045;-82
2022/10/29 07:47:31;;;;;;;111.97;33.58;;;;;;;;;;5139800;27;20042;-81
2022/10/29 07:50:15;;;;;;;97.22;30.77;;;;;;;;;;5141837;27;20395;-81
2022/10/29 07:53:00;;;;;;;87.90;30.02;;;13.20;99.90;;;;;;5107334;27;20497;-81
2022/10/29 07:55:54;;;;;;;65.93;24.17;;;13.20;99.90;;;;;;5133239;27;20109;-81
2022/10/29 07:58:38;;;;;;;98.40;29.77;;;13.30;99.90;;;;;;5142518;27;20030;-82
2022/10/29 08:01:22;;;;;;;108.28;29.48;;;;;;;;;;5144614;27;20418;-83
2022/10/29 08:04:07;;;;;;;87.78;26.58;;;;;;;;;;5147308;27;20046;-82
2022/10/29 08:06:51;;;;;;;57.90;25.35;;;;;;;;;;5149085;27;20065;-83
2022/10/29 08:09:36;;;;;;;76.07;26.33;;;;;;;;;;5129452;27;20029;-82
2022/10/29 08:12:20;;;;;;;83.75;26.98;;;;;;;;;;5134719;27;20045;-82
2022/10/29 08:15:06;;;;;;;69.47;25.70;;;13.30;99.90;;;;;;5147214;27;20038;-82
2022/10/29 08:17:50;;;;;;;62.25;25.27;;;13.30;99.90;;;;;;5117413;27;20042;-82
2022/10/29 08:20:35;;;;;;;63.35;25.15;;;;;;;;;;5150439;27;20087;-82
2022/10/29 08:23:19;;;;;;;79.65;28.73;;;;;;;;;;5129536;27;20050;-82
2022/10/29 08:26:04;;;;;;;53.15;23.90;;;;;;;;;;5148835;27;20493;-82
2022/10/29 08:28:48;;;;;;;70.85;26.40;;;;;;;;;;5143843;27;20410;-82
2022/10/29 08:31:33;;;;;;;51.28;22.67;;;;;;;;;;5128878;27;20444;-82
2022/10/29 08:34:18;;;;;;;48.80;22.83;;;;;;;;;;5134880;27;20103;-82
2022/10/29 08:37:02;;;;;;;46.80;23.15;;;;;;;;;;5131343;27;20059;-83
2022/10/29 08:39:46;;;;;;;49.50;22.80;;;;;;;;;;5149350;27;20046;-82
2022/10/29 08:42:31;;;;;;;44.42;21.50;;;;;;;;;;5130081;27;20088;-82
2022/10/29 08:45:53;;;;;;;52.60;22.27;;;13.90;99.90;;;;;;5145636;27;20445;-82
2022/10/29 08:48:52;;;;;;;50.83;22.48;;;13.70;99.90;;;;;;5146305;27;20065;-81
2022/10/29 08:51:39;;;;;;;42.88;21.35;;;13.80;99.90;;;;;;5103191;28;20038;-82
2022/10/29 08:54:27;;;;;;;40.42;20.90;;;13.90;99.90;;;;;;5133784;27;20060;-81
2022/10/29 08:57:16;;;;;;;47.35;22.48;;;13.90;99.90;;;;;;5133244;27;20091;-81
2022/10/29 09:00:12;;;;;;;44.28;21.27;;;13.90;99.90;;;;;;5133362;27;20058;-82
2022/10/29 09:02:58;;;;;;;40.90;19.05;;;14.10;99.90;;;;;;5119538;27;20395;-81
2022/10/29 09:06:07;;;;;;;39.35;20.60;;;14.10;99.90;;;;;;5118059;27;20046;-81
2022/10/29 09:09:25;;;;;;;36.13;19.35;;;14.20;99.90;;;;;;5133897;27;20042;-81
2022/10/29 09:12:35;;;;;;;38.97;18.98;;;14.30;99.90;;;;;;5125089;27;20050;-82
2022/10/29 09:15:58;;;;;;;41.17;19.77;;;14.30;99.90;;;;;;5123041;27;20057;-81
2022/10/29 09:19:21;;;;;;;41.55;20.27;;;14.30;99.90;;;;;;5122853;27;20399;-83
2022/10/29 09:22:20;;;;;;;40.40;18.70;;;14.40;99.90;;;;;;5093923;27;20407;-80
2022/10/29 09:25:04;;;;;;;33.95;17.92;;;;;;;;;;5119056;27;20103;-81
2022/10/29 09:28:12;;;;;;;36.83;19.20;;;14.50;99.90;;;;;;5133472;27;20168;-81
2022/10/29 09:31:05;;;;;;;45.45;19.90;;;14.60;99.90;;;;;;5096838;27;20050;-81
2022/10/29 09:33:52;;;;;;;38.58;19.58;;;14.60;99.90;;;;;;5121739;27;20065;-81
2022/10/29 09:36:37;;;;;;;37.88;18.27;;;14.70;99.90;;;;;;5117613;27;20076;-81
2022/10/29 09:39:38;;;;;;;36.97;17.30;;;15.00;99.90;;;;;;5132859;27;20065;-81
2022/10/29 09:42:36;;;;;;;36.88;18.52;;;14.70;99.90;;;;;;5121322;27;20572;-81
2022/10/29 09:45:27;;;;;;;34.33;17.33;;;14.70;99.90;;;;;;5117105;27;20038;-81
2022/10/29 09:48:28;;;;;;;33.05;17.52;;;14.70;99.90;;;;;;5117032;27;20399;-80
2022/10/29 09:51:19;;;;;;;34.53;17.55;;;15.10;99.90;;;;;;5109068;28;20470;-81
2022/10/29 09:54:03;;;;;;;34.00;18.63;;;14.80;99.90;;;;;;5129702;27;20098;-81
2022/10/29 09:56:48;;;;;;;39.55;18.02;;;;;;;;;;5117684;28;20124;-80
2022/10/29 09:59:39;;;;;;;40.10;18.10;;;15.00;99.90;;;;;;5133028;27;20026;-80
2022/10/29 10:02:25;;;;;;;35.25;18.50;;;15.30;99.90;;;;;;5132283;27;20159;-80
2022/10/29 10:05:14;;;;;;;38.80;17.88;;;15.40;99.90;;;;;;5132524;28;20440;-81
2022/10/29 10:08:08;;;;;;;37.42;19.33;;;15.40;99.90;;;;;;5132817;27;20030;-81
2022/10/29 10:10:54;;;;;;;;;;;15.40;99.90;;;;;;5133324;27;20088;-81
2022/10/29 10:13:56;;;;;;;38.72;18.00;;;15.50;99.90;;;;;;5117617;28;20295;-80
2022/10/29 10:16:41;;;;;;;37.28;17.73;;;15.50;99.90;;;;;;5119916;27;20030;-81
2022/10/29 10:19:28;;;;;;;36.88;19.08;;;15.60;99.90;;;;;;5132266;27;20087;-81
2022/10/29 10:22:21;;;;;;;35.78;18.25;;;15.50;99.90;;;;;;5131985;27;20088;-81
2022/10/29 10:25:31;;;;;;;33.67;17.35;;;15.90;99.90;;;;;;5117413;28;20115;-81
2022/10/29 10:28:21;;;;;;;34.28;16.77;;;16.00;99.90;;;;;;5132184;27;20119;-81
2022/10/29 10:31:11;;;;;;;36.80;16.30;;;16.00;99.90;;;;;;5135380;27;20401;-81
2022/10/29 10:33:56;;;;;;;33.20;16.17;;;;;;;;;;5136785;27;20118;-81
2022/10/29 10:36:44;;;;;;;29.80;15.93;;;16.20;99.90;;;;;;5136707;27;20038;-80
2022/10/29 10:39:37;;;;;;;29.38;15.65;;;16.40;99.90;;;;;;5136191;27;20034;-81
2022/10/29 10:42:31;;;;;;;24.37;14.70;;;16.70;99.90;;;;;;5124636;27;20045;-81
2022/10/29 10:45:22;;;;;;;36.22;15.70;;;16.70;99.90;;;;;;5135817;27;20260;-81
2022/10/29 10:48:09;;;;;;;26.48;13.95;;;16.90;99.90;;;;;;5136328;27;20038;-81
2022/10/29 10:51:23;;;;;;;26.70;13.25;;;16.90;99.90;;;;;;5131254;27;20459;-81
2022/10/29 10:54:38;;;;;;;24.13;14.13;;;17.20;99.90;;;;;;5118395;27;20080;-81
2022/10/29 10:57:27;;;;;;;26.45;12.63;;;17.10;99.90;;;;;;5122728;27;20034;-81
2022/10/29 11:00:20;;;;;;;25.90;12.23;;;17.20;99.90;;;;;;5135845;27;20042;-81
2022/10/29 11:03:04;;;;;;;27.92;13.20;;;17.30;99.90;;;;;;5123273;27;20142;-81
2022/10/29 11:06:03;;;;;;;27.95;12.68;;;17.40;99.90;;;;;;5136058;27;20046;-80
2022/10/29 11:09:15;;;;;;;25.30;12.82;;;17.50;99.90;;;;;;5136134;27;20042;-80
2022/10/29 11:12:09;;;;;;;22.75;12.50;;;17.70;99.90;;;;;;5126589;27;20042;-81
2022/10/29 11:14:58;;;;;;;23.70;13.40;;;17.70;99.90;;;;;;5122343;27;20413;-81
2022/10/29 11:18:15;;;;;;;24.85;12.55;;;17.80;99.90;;;;;;5135752;27;20068;-81
2022/10/29 11:21:15;;;;;;;26.65;12.80;;;17.80;99.90;;;;;;5135637;27;20034;-81
2022/10/29 11:24:08;;;;;;;23.33;12.38;;;17.90;99.90;;;;;;5136172;27;20110;-81
2022/10/29 11:27:05;;;;;;;23.85;11.48;;;17.90;99.90;;;;;;5122877;27;20086;-81
2022/10/29 11:29:57;;;;;;;20.17;10.77;;;17.90;99.90;;;;;;5135577;27;20097;-81
2022/10/29 11:33:17;;;;;;;18.02;11.30;;;18.00;99.90;;;;;;5135819;27;20091;-81
2022/10/29 11:36:14;;;;;;;21.65;10.95;;;18.00;99.90;;;;;;5127954;27;20037;-81
2022/10/29 11:39:08;;;;;;;19.48;11.25;;;18.10;99.90;;;;;;5135571;27;20061;-81
2022/10/29 11:41:55;;;;;;;20.98;11.95;;;18.10;99.90;;;;;;5134514;27;20103;-81
2022/10/29 11:44:40;;;;;;;19.98;10.50;;;18.10;99.90;;;;;;5135082;27;20029;-81
2022/10/29 11:47:56;;;;;;;17.40;9.90;;;18.30;99.90;;;;;;5122920;27;20405;-81
2022/10/29 11:51:08;;;;;;;24.73;9.02;;;18.40;99.90;;;;;;5131615;27;20027;-81
2022/10/29 11:54:00;;;;;;;20.25;10.05;;;18.40;99.90;;;;;;5115190;27;20042;-80
2022/10/29 11:56:51;;;;;;;26.90;9.77;;;18.50;99.90;;;;;;5135145;27;20057;-81
2022/10/29 11:59:43;;;;;;;20.75;8.93;;;18.60;99.90;;;;;;5120894;27;20033;-81
2022/10/29 12:02:46;;;;;;;21.95;10.88;;;18.70;99.90;;;;;;5118784;27;20045;-81
2022/10/29 12:05:49;;;;;;;19.65;9.90;;;18.80;99.90;;;;;;5134591;27;20038;-81
2022/10/29 12:09:07;;;;;;;20.65;9.07;;;18.80;99.90;;;;;;5134552;27;20057;-81
2022/10/29 12:12:17;;;;;;;21.90;9.50;;;18.80;99.90;;;;;;5124400;27;20038;-81
2022/10/29 12:15:13;;;;;;;20.45;9.27;;;18.80;99.90;;;;;;5134764;27;20080;-81
2022/10/29 12:18:18;;;;;;;19.27;9.55;;;18.80;99.90;;;;;;5134610;27;20030;-81
2022/10/29 12:21:17;;;;;;;19.73;9.77;;;18.80;99.90;;;;;;5134422;27;20042;-81
2022/10/29 12:24:28;;;;;;;24.10;9.45;;;18.80;99.90;;;;;;5134634;27;20505;-81
2022/10/29 12:27:26;;;;;;;18.77;10.70;;;18.70;99.90;;;;;;5124511;27;20049;-81
2022/10/29 12:30:14;;;;;;;21.80;9.40;;;18.80;99.90;;;;;;5120623;27;20038;-81
2022/10/29 12:33:10;;;;;;;18.88;9.70;;;18.70;99.90;;;;;;5134367;27;20042;-81
2022/10/29 12:36:14;;;;;;;21.33;9.68;;;18.80;99.90;;;;;;5134506;27;20038;-81
2022/10/29 12:38:59;;;;;;;19.65;8.70;;;18.80;99.90;;;;;;5134314;27;20062;-81
2022/10/29 12:41:50;;;;;;;22.88;9.20;;;18.80;99.90;;;;;;5133619;27;20505;-81
2022/10/29 12:45:12;;;;;;;17.73;9.60;;;18.90;99.90;;;;;;5133718;27;20065;-81
2022/10/29 12:48:17;;;;;;;18.85;8.98;;;19.00;99.90;;;;;;5123870;27;20092;-80
2022/10/29 12:51:13;;;;;;;17.75;8.88;;;18.90;99.90;;;;;;5127764;27;20047;-81
2022/10/29 12:54:09;;;;;;;20.48;9.15;;;19.00;99.90;;;;;;5130134;27;20156;-81
2022/10/29 12:56:56;;;;;;;17.83;9.85;;;19.00;99.90;;;;;;5134104;27;20488;-81
2022/10/29 12:59:41;;;;;;;22.40;9.20;;;19.00;99.90;;;;;;5133507;27;20112;-81
2022/10/29 13:02:49;;;;;;;19.58;8.50;;;19.00;99.90;;;;;;5133231;27;20091;-81
2022/10/29 13:05:36;;;;;;;18.35;8.77;;;19.00;99.90;;;;;;5133348;27;20115;-80
2022/10/29 13:08:31;;;;;;;17.27;9.43;;;18.20;99.90;;;;;;5122243;27;20038;-81
2022/10/29 13:11:23;;;;;;;18.55;9.60;;;19.20;99.90;;;;;;5118007;27;20041;-81
2022/10/29 13:14:08;;;;;;;19.52;10.07;;;19.40;99.90;;;;;;5133584;27;20034;-81
2022/10/29 13:16:54;;;;;;;25.35;9.40;;;19.60;99.90;;;;;;5118036;27;20517;-82
2022/10/29 13:19:46;;;;;;;23.45;9.10;;;19.50;99.90;;;;;;5132867;27;20066;-82
2022/10/29 13:22:51;;;;;;;23.02;9.23;;;19.80;99.90;;;;;;5132910;27;20112;-82
2022/10/29 13:25:36;;;;;;;18.80;10.27;;;19.60;99.90;;;;;;5117400;27;20061;-81
2022/10/29 13:28:20;;;;;;;22.38;9.18;;;19.70;99.90;;;;;;5133315;27;20494;-81
2022/10/29 13:31:04;;;;;;;21.05;10.57;;;19.70;99.90;;;;;;5133563;27;20148;-81
2022/10/29 13:33:49;;;;;;;21.05;9.85;;;19.70;99.90;;;;;;5132964;27;20049;-81
2022/10/29 13:36:36;;;;;;;20.52;11.13;;;19.80;99.90;;;;;;5132849;27;20095;-82
2022/10/29 13:39:20;;;;;;;19.55;10.82;;;19.80;99.90;;;;;;5133461;27;20075;-81
2022/10/29 13:42:10;;;;;;;22.42;10.95;;;19.90;99.90;;;;;;5117822;28;20092;-81
2022/10/29 13:44:54;;;;;;;20.20;9.48;;;20.00;99.90;;;;;;5117272;27;20038;-81
2022/10/29 13:47:39;;;;;;;18.90;9.82;;;20.10;99.90;;;;;;5132780;27;20042;-81
2022/10/29 13:50:24;;;;;;;21.00;9.50;;;20.10;99.90;;;;;;5131943;27;20104;-82
2022/10/29 13:53:13;;;;;;;24.02;10.63;;;20.20;99.90;;;;;;5122661;27;20045;-82
2022/10/29 13:55:58;;;;;;;18.65;9.77;;;20.20;99.90;;;;;;5117489;27;20047;-82
2022/10/29 13:58:44;;;;;;;22.33;10.52;;;20.10;99.90;;;;;;5132671;27;20080;-82
2022/10/29 14:01:32;;;;;;;21.13;9.75;;;20.10;99.90;;;;;;5117591;28;20066;-82
2022/10/29 14:04:24;;;;;;;20.27;9.27;;;20.00;99.90;;;;;;5132969;27;20030;-82
2022/10/29 14:07:16;;;;;;;20.95;9.95;;;20.00;99.90;;;;;;5122045;27;20083;-82
2022/10/29 14:10:07;;;;;;;21.10;9.90;;;20.00;99.90;;;;;;5137313;27;20034;-82
2022/10/29 14:12:56;;;;;;;23.80;10.57;;;20.00;99.90;;;;;;5136628;27;20550;-82
2022/10/29 14:16:00;;;;;;;21.45;10.73;;;20.00;99.90;;;;;;5136720;27;20111;-82
2022/10/29 14:18:44;;;;;;;;;;;19.90;99.90;;;;;;5127078;27;20065;-82
2022/10/29 14:21:29;;;;;;;;;;;19.90;99.90;;;;;;5137816;27;19921;-82
2022/10/29 14:24:15;;;;;;;25.38;9.93;;;19.90;99.90;;;;;;5136910;27;19983;-82
2022/10/29 14:27:06;;;;;;;24.00;10.70;;;19.80;99.90;;;;;;5137041;27;20073;-82
2022/10/29 14:29:50;;;;;;;19.58;9.77;;;19.90;99.90;;;;;;5120632;27;20156;-83
2022/10/29 14:32:37;;;;;;;19.17;10.13;;;19.90;99.90;;;;;;5120878;27;20050;-81
2022/10/29 14:35:22;;;;;;;24.30;10.93;;;19.90;99.90;;;;;;5123533;27;20031;-81
2022/10/29 14:38:06;;;;;;;23.17;10.40;;;19.90;99.90;;;;;;5136594;27;20042;-81
2022/10/29 14:40:51;;;;;;;22.00;10.52;;;19.90;99.90;;;;;;5136125;27;20080;-80
2022/10/29 14:43:36;;;;;;;19.25;10.05;;;19.90;99.90;;;;;;5136433;27;20087;-81
2022/10/29 14:46:25;;;;;;;26.20;10.70;;;19.90;99.90;;;;;;5136522;27;20084;-81
2022/10/29 14:49:20;;;;;;;20.70;10.50;;;19.90;99.90;;;;;;5121173;27;20050;-81
2022/10/29 14:52:37;;;;;;;23.75;11.15;;;19.80;99.90;;;;;;5121687;27;20062;-81
2022/10/29 14:55:29;;;;;;;24.88;10.45;;;19.70;99.90;;;;;;5131343;27;20092;-81
2022/10/29 14:58:18;;;;;;;20.90;10.30;;;19.70;99.90;;;;;;5125355;27;20037;-81
2022/10/29 15:01:07;;;;;;;23.05;11.90;;;19.60;99.90;;;;;;5136010;27;20383;-81
2022/10/29 15:04:00;;;;;;;23.00;12.40;;;19.60;99.90;;;;;;5120211;27;20054;-81
2022/10/29 15:06:44;;;;;;;24.90;12.27;;;19.50;99.90;;;;;;5130461;27;20032;-80